sensor_id;sensor_type;location;lat;lon;timestamp;P1;durP1;ratioP1;P2;durP2;ratioP2
50092;SDS011;35974;47.752;10.290;2023-03-14T00:00:39;0.50;;;0.35;;
50092;SDS011;35974;47.752;10.290;2023-03-14T00:03:05;0.90;;;0.40;;
50092;SDS011;35974;47.752;10.290;2023-03-14T00:05:33;0.57;;;0.32;;
50092;SDS011;35974;47.752;10.290;2023-03-14T00:08:00;0.60;;;0.50;;
50092;SDS011;35974;47.752;10.290;2023-03-14T00:10:26;2.35;;;0.65;;
50092;SDS011;35974;47.752;10.290;2023-03-14T00:12:52;2.28;;;0.73;;
50092;SDS011;35974;47.752;10.290;2023-03-14T00:15:19;1.05;;;0.20;;
50092;SDS011;35974;47.752;10.290;2023-03-14T00:17:45;0.80;;;0.35;;
50092;SDS011;35974;47.752;10.290;2023-03-14T00:20:12;1.33;;;0.50;;
50092;SDS011;35974;47.752;10.290;2023-03-14T00:22:38;2.10;;;0.55;;
50092;SDS011;35974;47.752;10.290;2023-03-14T00:25:05;0.93;;;0.40;;
50092;SDS011;35974;47.752;10.290;2023-03-14T00:27:33;0.60;;;0.20;;
50092;SDS011;35974;47.752;10.290;2023-03-14T00:30:00;1.65;;;0.30;;
50092;SDS011;35974;47.752;10.290;2023-03-14T00:32:26;1.02;;;0.30;;
50092;SDS011;35974;47.752;10.290;2023-03-14T00:34:53;1.42;;;0.17;;
50092;SDS011;35974;47.752;10.290;2023-03-14T00:37:19;0.28;;;0.20;;
50092;SDS011;35974;47.752;10.290;2023-03-14T00:39:46;0.43;;;0.20;;
50092;SDS011;35974;47.752;10.290;2023-03-14T00:42:13;0.70;;;0.20;;
50092;SDS011;35974;47.752;10.290;2023-03-14T00:44:40;0.10;;;0.10;;
50092;SDS011;35974;47.752;10.290;2023-03-14T00:47:06;0.57;;;0.10;;
50092;SDS011;35974;47.752;10.290;2023-03-14T00:52:38;0.10;;;0.10;;
50092;SDS011;35974;47.752;10.290;2023-03-14T00:55:05;0.10;;;0.10;;
50092;SDS011;35974;47.752;10.290;2023-03-14T00:57:31;0.43;;;0.20;;
50092;SDS011;35974;47.752;10.290;2023-03-14T00:59:58;0.22;;;0.15;;
50092;SDS011;35974;47.752;10.290;2023-03-14T01:02:24;0.80;;;0.17;;
50092;SDS011;35974;47.752;10.290;2023-03-14T01:04:50;0.75;;;0.20;;
50092;SDS011;35974;47.752;10.290;2023-03-14T01:07:17;0.75;;;0.20;;
50092;SDS011;35974;47.752;10.290;2023-03-14T01:09:50;0.22;;;0.00;;
50092;SDS011;35974;47.752;10.290;2023-03-14T01:12:18;0.28;;;0.10;;
50092;SDS011;35974;47.752;10.290;2023-03-14T01:14:44;0.40;;;0.10;;
50092;SDS011;35974;47.752;10.290;2023-03-14T01:17:11;0.57;;;0.10;;
50092;SDS011;35974;47.752;10.290;2023-03-14T01:19:37;0.52;;;0.10;;
50092;SDS011;35974;47.752;10.290;2023-03-14T01:22:04;0.57;;;0.30;;
50092;SDS011;35974;47.752;10.290;2023-03-14T01:24:30;0.82;;;0.10;;
50092;SDS011;35974;47.752;10.290;2023-03-14T01:26:57;0.03;;;0.00;;
50092;SDS011;35974;47.752;10.290;2023-03-14T01:29:23;0.32;;;0.17;;
50092;SDS011;35974;47.752;10.290;2023-03-14T01:31:49;3.35;;;0.30;;
50092;SDS011;35974;47.752;10.290;2023-03-14T01:34:16;0.25;;;0.10;;
50092;SDS011;35974;47.752;10.290;2023-03-14T01:36:42;0.22;;;0.05;;
50092;SDS011;35974;47.752;10.290;2023-03-14T01:39:09;1.77;;;0.10;;
50092;SDS011;35974;47.752;10.290;2023-03-14T01:41:35;0.03;;;0.03;;
50092;SDS011;35974;47.752;10.290;2023-03-14T01:44:02;0.30;;;0.00;;
50092;SDS011;35974;47.752;10.290;2023-03-14T01:46:41;0.00;;;0.00;;
50092;SDS011;35974;47.752;10.290;2023-03-14T01:49:20;0.10;;;0.00;;
50092;SDS011;35974;47.752;10.290;2023-03-14T01:54:40;0.15;;;0.00;;
50092;SDS011;35974;47.752;10.290;2023-03-14T01:57:14;0.00;;;0.00;;
50092;SDS011;35974;47.752;10.290;2023-03-14T01:59:46;0.22;;;0.13;;
50092;SDS011;35974;47.752;10.290;2023-03-14T02:02:16;0.22;;;0.05;;
50092;SDS011;35974;47.752;10.290;2023-03-14T02:04:43;1.15;;;0.20;;
50092;SDS011;35974;47.752;10.290;2023-03-14T02:10:09;0.40;;;0.17;;
50092;SDS011;35974;47.752;10.290;2023-03-14T02:12:36;0.35;;;0.10;;
50092;SDS011;35974;47.752;10.290;2023-03-14T02:15:04;1.75;;;0.10;;
50092;SDS011;35974;47.752;10.290;2023-03-14T02:17:30;0.25;;;0.05;;
50092;SDS011;35974;47.752;10.290;2023-03-14T02:22:31;0.15;;;0.10;;
50092;SDS011;35974;47.752;10.290;2023-03-14T02:25:13;0.10;;;0.00;;
50092;SDS011;35974;47.752;10.290;2023-03-14T02:27:45;0.75;;;0.10;;
50092;SDS011;35974;47.752;10.290;2023-03-14T02:30:18;0.57;;;0.10;;
50092;SDS011;35974;47.752;10.290;2023-03-14T02:32:51;1.80;;;0.10;;
50092;SDS011;35974;47.752;10.290;2023-03-14T02:35:24;1.17;;;0.10;;
50092;SDS011;35974;47.752;10.290;2023-03-14T02:40:40;0.57;;;0.10;;
50092;SDS011;35974;47.752;10.290;2023-03-14T02:43:07;0.30;;;0.10;;
50092;SDS011;35974;47.752;10.290;2023-03-14T02:45:41;0.10;;;0.10;;
50092;SDS011;35974;47.752;10.290;2023-03-14T02:48:14;0.10;;;0.10;;
50092;SDS011;35974;47.752;10.290;2023-03-14T02:50:59;0.55;;;0.10;;
50092;SDS011;35974;47.752;10.290;2023-03-14T02:53:31;0.35;;;0.00;;
50092;SDS011;35974;47.752;10.290;2023-03-14T02:56:00;0.10;;;0.10;;
50092;SDS011;35974;47.752;10.290;2023-03-14T02:58:27;0.13;;;0.00;;
50092;SDS011;35974;47.752;10.290;2023-03-14T03:00:54;1.55;;;0.00;;
50092;SDS011;35974;47.752;10.290;2023-03-14T03:03:21;0.52;;;0.03;;
50092;SDS011;35974;47.752;10.290;2023-03-14T03:05:50;0.03;;;0.00;;
50092;SDS011;35974;47.752;10.290;2023-03-14T03:08:18;0.08;;;0.00;;
50092;SDS011;35974;47.752;10.290;2023-03-14T03:10:48;1.35;;;0.10;;
50092;SDS011;35974;47.752;10.290;2023-03-14T03:13:15;0.20;;;0.10;;
50092;SDS011;35974;47.752;10.290;2023-03-14T03:15:43;1.60;;;0.20;;
50092;SDS011;35974;47.752;10.290;2023-03-14T03:18:09;0.10;;;0.10;;
50092;SDS011;35974;47.752;10.290;2023-03-14T03:20:36;2.10;;;0.13;;
50092;SDS011;35974;47.752;10.290;2023-03-14T03:23:02;0.13;;;0.13;;
50092;SDS011;35974;47.752;10.290;2023-03-14T03:28:21;1.33;;;0.17;;
50092;SDS011;35974;47.752;10.290;2023-03-14T03:30:48;1.55;;;0.10;;
50092;SDS011;35974;47.752;10.290;2023-03-14T03:33:14;0.20;;;0.10;;
50092;SDS011;35974;47.752;10.290;2023-03-14T03:35:48;0.10;;;0.03;;
50092;SDS011;35974;47.752;10.290;2023-03-14T03:38:15;0.10;;;0.10;;
50092;SDS011;35974;47.752;10.290;2023-03-14T03:40:42;0.43;;;0.10;;
50092;SDS011;35974;47.752;10.290;2023-03-14T03:43:09;0.65;;;0.15;;
50092;SDS011;35974;47.752;10.290;2023-03-14T03:45:35;0.40;;;0.10;;
50092;SDS011;35974;47.752;10.290;2023-03-14T03:48:02;1.35;;;0.10;;
50092;SDS011;35974;47.752;10.290;2023-03-14T03:50:28;0.10;;;0.00;;
50092;SDS011;35974;47.752;10.290;2023-03-14T03:52:55;0.30;;;0.10;;
50092;SDS011;35974;47.752;10.290;2023-03-14T03:55:21;0.30;;;0.10;;
50092;SDS011;35974;47.752;10.290;2023-03-14T03:57:48;0.47;;;0.20;;
50092;SDS011;35974;47.752;10.290;2023-03-14T04:00:14;0.60;;;0.17;;
50092;SDS011;35974;47.752;10.290;2023-03-14T04:02:41;1.15;;;0.10;;
50092;SDS011;35974;47.752;10.290;2023-03-14T04:05:07;1.35;;;0.10;;
50092;SDS011;35974;47.752;10.290;2023-03-14T04:07:34;0.28;;;0.10;;
50092;SDS011;35974;47.752;10.290;2023-03-14T04:10:00;0.00;;;0.00;;
50092;SDS011;35974;47.752;10.290;2023-03-14T04:12:27;0.55;;;0.08;;
50092;SDS011;35974;47.752;10.290;2023-03-14T04:14:53;0.10;;;0.08;;
50092;SDS011;35974;47.752;10.290;2023-03-14T04:17:20;0.00;;;0.00;;
50092;SDS011;35974;47.752;10.290;2023-03-14T04:19:47;0.60;;;0.10;;
50092;SDS011;35974;47.752;10.290;2023-03-14T04:22:17;0.00;;;0.00;;
50092;SDS011;35974;47.752;10.290;2023-03-14T04:24:43;0.10;;;0.10;;
50092;SDS011;35974;47.752;10.290;2023-03-14T04:27:10;0.08;;;0.08;;
50092;SDS011;35974;47.752;10.290;2023-03-14T04:29:36;0.38;;;0.10;;
50092;SDS011;35974;47.752;10.290;2023-03-14T04:32:02;0.10;;;0.08;;
50092;SDS011;35974;47.752;10.290;2023-03-14T04:34:29;0.38;;;0.10;;
50092;SDS011;35974;47.752;10.290;2023-03-14T04:36:56;1.27;;;0.00;;
50092;SDS011;35974;47.752;10.290;2023-03-14T04:39:22;0.00;;;0.00;;
50092;SDS011;35974;47.752;10.290;2023-03-14T04:41:48;0.75;;;0.00;;
50092;SDS011;35974;47.752;10.290;2023-03-14T04:44:15;1.25;;;0.08;;
50092;SDS011;35974;47.752;10.290;2023-03-14T04:46:41;0.10;;;0.10;;
50092;SDS011;35974;47.752;10.290;2023-03-14T04:49:08;0.20;;;0.10;;
50092;SDS011;35974;47.752;10.290;2023-03-14T04:51:49;0.55;;;0.03;;
50092;SDS011;35974;47.752;10.290;2023-03-14T04:54:17;0.40;;;0.03;;
50092;SDS011;35974;47.752;10.290;2023-03-14T04:56:43;0.52;;;0.10;;
50092;SDS011;35974;47.752;10.290;2023-03-14T04:59:16;0.40;;;0.28;;
50092;SDS011;35974;47.752;10.290;2023-03-14T05:01:57;0.68;;;0.30;;
50092;SDS011;35974;47.752;10.290;2023-03-14T05:04:27;0.32;;;0.20;;
50092;SDS011;35974;47.752;10.290;2023-03-14T05:07:05;0.57;;;0.20;;
50092;SDS011;35974;47.752;10.290;2023-03-14T05:12:35;1.88;;;0.35;;
50092;SDS011;35974;47.752;10.290;2023-03-14T05:17:52;1.98;;;0.60;;
50092;SDS011;35974;47.752;10.290;2023-03-14T05:20:20;1.55;;;0.75;;
50092;SDS011;35974;47.752;10.290;2023-03-14T05:22:53;0.88;;;0.28;;
50092;SDS011;35974;47.752;10.290;2023-03-14T05:28:08;0.32;;;0.30;;
50092;SDS011;35974;47.752;10.290;2023-03-14T05:30:34;1.63;;;0.70;;
50092;SDS011;35974;47.752;10.290;2023-03-14T05:33:01;2.63;;;0.85;;
50092;SDS011;35974;47.752;10.290;2023-03-14T05:35:27;0.93;;;0.52;;
50092;SDS011;35974;47.752;10.290;2023-03-14T05:40:26;1.45;;;0.40;;
50092;SDS011;35974;47.752;10.290;2023-03-14T05:43:05;0.70;;;0.40;;
50092;SDS011;35974;47.752;10.290;2023-03-14T05:45:44;0.57;;;0.40;;
50092;SDS011;35974;47.752;10.290;2023-03-14T05:48:10;1.38;;;0.40;;
50092;SDS011;35974;47.752;10.290;2023-03-14T05:50:43;0.30;;;0.30;;
50092;SDS011;35974;47.752;10.290;2023-03-14T05:53:10;0.35;;;0.20;;
50092;SDS011;35974;47.752;10.290;2023-03-14T05:55:36;0.80;;;0.50;;
50092;SDS011;35974;47.752;10.290;2023-03-14T05:58:03;0.82;;;0.43;;
50092;SDS011;35974;47.752;10.290;2023-03-14T06:00:36;0.93;;;0.60;;
50092;SDS011;35974;47.752;10.290;2023-03-14T06:06:09;2.78;;;2.10;;
50092;SDS011;35974;47.752;10.290;2023-03-14T06:08:36;1.38;;;1.00;;
50092;SDS011;35974;47.752;10.290;2023-03-14T06:11:03;0.80;;;0.60;;
50092;SDS011;35974;47.752;10.290;2023-03-14T06:13:29;0.73;;;0.40;;
50092;SDS011;35974;47.752;10.290;2023-03-14T06:19:48;3.75;;;1.80;;
50092;SDS011;35974;47.752;10.290;2023-03-14T06:22:14;4.03;;;1.05;;
50092;SDS011;35974;47.752;10.290;2023-03-14T06:24:41;5.15;;;1.40;;
50092;SDS011;35974;47.752;10.290;2023-03-14T06:27:07;2.67;;;0.93;;
50092;SDS011;35974;47.752;10.290;2023-03-14T06:29:34;1.17;;;0.30;;
50092;SDS011;35974;47.752;10.290;2023-03-14T06:32:00;1.55;;;0.30;;
50092;SDS011;35974;47.752;10.290;2023-03-14T06:34:26;1.55;;;0.30;;
50092;SDS011;35974;47.752;10.290;2023-03-14T06:36:54;0.70;;;0.50;;
50092;SDS011;35974;47.752;10.290;2023-03-14T06:39:20;0.60;;;0.45;;
50092;SDS011;35974;47.752;10.290;2023-03-14T06:41:47;1.92;;;0.50;;
50092;SDS011;35974;47.752;10.290;2023-03-14T06:47:01;2.15;;;0.70;;
50092;SDS011;35974;47.752;10.290;2023-03-14T06:49:28;1.33;;;0.50;;
50092;SDS011;35974;47.752;10.290;2023-03-14T06:51:54;2.40;;;1.25;;
50092;SDS011;35974;47.752;10.290;2023-03-14T06:54:21;3.20;;;1.00;;
50092;SDS011;35974;47.752;10.290;2023-03-14T06:56:47;1.50;;;0.80;;
50092;SDS011;35974;47.752;10.290;2023-03-14T06:59:14;1.73;;;0.80;;
50092;SDS011;35974;47.752;10.290;2023-03-14T07:01:45;1.52;;;0.82;;
50092;SDS011;35974;47.752;10.290;2023-03-14T07:04:14;1.48;;;0.82;;
50092;SDS011;35974;47.752;10.290;2023-03-14T07:06:40;1.20;;;0.73;;
50092;SDS011;35974;47.752;10.290;2023-03-14T07:09:10;1.30;;;0.80;;
50092;SDS011;35974;47.752;10.290;2023-03-14T07:11:37;2.63;;;1.00;;
50092;SDS011;35974;47.752;10.290;2023-03-14T07:14:04;1.40;;;0.80;;
50092;SDS011;35974;47.752;10.290;2023-03-14T07:16:30;1.35;;;0.75;;
50092;SDS011;35974;47.752;10.290;2023-03-14T07:18:59;1.40;;;0.90;;
50092;SDS011;35974;47.752;10.290;2023-03-14T07:21:26;1.15;;;0.65;;
50092;SDS011;35974;47.752;10.290;2023-03-14T07:23:53;1.20;;;0.70;;
50092;SDS011;35974;47.752;10.290;2023-03-14T07:26:19;1.08;;;0.60;;
50092;SDS011;35974;47.752;10.290;2023-03-14T07:28:46;2.00;;;0.80;;
50092;SDS011;35974;47.752;10.290;2023-03-14T07:31:13;1.30;;;0.80;;
50092;SDS011;35974;47.752;10.290;2023-03-14T07:33:40;2.33;;;0.80;;
50092;SDS011;35974;47.752;10.290;2023-03-14T07:36:06;3.17;;;1.20;;
50092;SDS011;35974;47.752;10.290;2023-03-14T07:38:33;3.15;;;0.80;;
50092;SDS011;35974;47.752;10.290;2023-03-14T07:41:00;1.95;;;1.13;;
50092;SDS011;35974;47.752;10.290;2023-03-14T07:43:31;2.40;;;1.13;;
50092;SDS011;35974;47.752;10.290;2023-03-14T07:45:58;1.25;;;0.60;;
50092;SDS011;35974;47.752;10.290;2023-03-14T07:48:24;3.72;;;0.75;;
50092;SDS011;35974;47.752;10.290;2023-03-14T07:50:53;1.30;;;0.70;;
50092;SDS011;35974;47.752;10.290;2023-03-14T07:53:20;2.05;;;0.70;;
50092;SDS011;35974;47.752;10.290;2023-03-14T07:55:47;1.25;;;0.75;;
50092;SDS011;35974;47.752;10.290;2023-03-14T07:58:14;1.75;;;0.80;;
50092;SDS011;35974;47.752;10.290;2023-03-14T08:00:40;1.85;;;0.47;;
50092;SDS011;35974;47.752;10.290;2023-03-14T08:03:07;0.90;;;0.70;;
50092;SDS011;35974;47.752;10.290;2023-03-14T08:05:34;0.60;;;0.40;;
50092;SDS011;35974;47.752;10.290;2023-03-14T08:08:04;2.75;;;0.52;;
50092;SDS011;35974;47.752;10.290;2023-03-14T08:10:31;1.40;;;0.68;;
50092;SDS011;35974;47.752;10.290;2023-03-14T08:12:58;3.28;;;0.90;;
50092;SDS011;35974;47.752;10.290;2023-03-14T08:15:26;0.82;;;0.50;;
50092;SDS011;35974;47.752;10.290;2023-03-14T08:17:54;2.88;;;0.60;;
50092;SDS011;35974;47.752;10.290;2023-03-14T08:20:21;1.77;;;0.50;;
50092;SDS011;35974;47.752;10.290;2023-03-14T08:22:56;1.98;;;0.38;;
50092;SDS011;35974;47.752;10.290;2023-03-14T08:25:24;1.38;;;0.45;;
50092;SDS011;35974;47.752;10.290;2023-03-14T08:27:52;0.88;;;0.47;;
50092;SDS011;35974;47.752;10.290;2023-03-14T08:30:19;1.65;;;0.50;;
50092;SDS011;35974;47.752;10.290;2023-03-14T08:32:46;0.85;;;0.35;;
50092;SDS011;35974;47.752;10.290;2023-03-14T08:35:13;2.58;;;0.43;;
50092;SDS011;35974;47.752;10.290;2023-03-14T08:37:40;2.92;;;0.60;;
50092;SDS011;35974;47.752;10.290;2023-03-14T08:40:07;1.00;;;0.20;;
50092;SDS011;35974;47.752;10.290;2023-03-14T08:42:36;0.63;;;0.15;;
50092;SDS011;35974;47.752;10.290;2023-03-14T08:45:04;0.10;;;0.10;;
50092;SDS011;35974;47.752;10.290;2023-03-14T08:47:31;0.95;;;0.10;;
50092;SDS011;35974;47.752;10.290;2023-03-14T08:49:58;0.50;;;0.15;;
50092;SDS011;35974;47.752;10.290;2023-03-14T08:52:25;0.10;;;0.10;;
50092;SDS011;35974;47.752;10.290;2023-03-14T08:54:51;0.47;;;0.20;;
50092;SDS011;35974;47.752;10.290;2023-03-14T08:57:18;0.10;;;0.10;;
50092;SDS011;35974;47.752;10.290;2023-03-14T08:59:45;0.55;;;0.10;;
50092;SDS011;35974;47.752;10.290;2023-03-14T09:02:11;0.10;;;0.10;;
50092;SDS011;35974;47.752;10.290;2023-03-14T09:04:39;2.55;;;0.20;;
50092;SDS011;35974;47.752;10.290;2023-03-14T09:07:05;0.55;;;0.10;;
50092;SDS011;35974;47.752;10.290;2023-03-14T09:09:32;0.52;;;0.20;;
50092;SDS011;35974;47.752;10.290;2023-03-14T09:11:58;0.13;;;0.03;;
50092;SDS011;35974;47.752;10.290;2023-03-14T09:14:25;0.98;;;0.10;;
50092;SDS011;35974;47.752;10.290;2023-03-14T09:16:51;0.93;;;0.17;;
50092;SDS011;35974;47.752;10.290;2023-03-14T09:19:18;2.35;;;0.10;;
50092;SDS011;35974;47.752;10.290;2023-03-14T09:21:44;1.83;;;0.25;;
50092;SDS011;35974;47.752;10.290;2023-03-14T09:24:11;0.22;;;0.20;;
50092;SDS011;35974;47.752;10.290;2023-03-14T09:26:37;1.30;;;0.10;;
50092;SDS011;35974;47.752;10.290;2023-03-14T09:29:04;0.63;;;0.20;;
50092;SDS011;35974;47.752;10.290;2023-03-14T09:31:30;0.75;;;0.30;;
50092;SDS011;35974;47.752;10.290;2023-03-14T09:33:57;2.42;;;0.32;;
50092;SDS011;35974;47.752;10.290;2023-03-14T09:36:23;1.75;;;0.30;;
50092;SDS011;35974;47.752;10.290;2023-03-14T09:38:50;0.57;;;0.20;;
50092;SDS011;35974;47.752;10.290;2023-03-14T09:41:26;0.38;;;0.28;;
50092;SDS011;35974;47.752;10.290;2023-03-14T09:44:00;1.15;;;0.30;;
50092;SDS011;35974;47.752;10.290;2023-03-14T09:46:51;0.20;;;0.10;;
50092;SDS011;35974;47.752;10.290;2023-03-14T09:49:36;1.95;;;0.40;;
50092;SDS011;35974;47.752;10.290;2023-03-14T09:52:07;5.28;;;0.50;;
50092;SDS011;35974;47.752;10.290;2023-03-14T09:54:42;0.35;;;0.17;;
50092;SDS011;35974;47.752;10.290;2023-03-14T09:57:12;0.60;;;0.20;;
50092;SDS011;35974;47.752;10.290;2023-03-14T09:59:43;1.17;;;0.10;;
50092;SDS011;35974;47.752;10.290;2023-03-14T10:02:13;0.30;;;0.10;;
50092;SDS011;35974;47.752;10.290;2023-03-14T10:04:41;0.82;;;0.20;;
50092;SDS011;35974;47.752;10.290;2023-03-14T10:07:14;1.20;;;0.20;;
50092;SDS011;35974;47.752;10.290;2023-03-14T10:09:46;1.08;;;0.30;;
50092;SDS011;35974;47.752;10.290;2023-03-14T10:12:16;0.52;;;0.17;;
50092;SDS011;35974;47.752;10.290;2023-03-14T10:14:48;3.55;;;0.30;;
50092;SDS011;35974;47.752;10.290;2023-03-14T10:17:19;0.57;;;0.10;;
50092;SDS011;35974;47.752;10.290;2023-03-14T10:19:56;0.20;;;0.10;;
50092;SDS011;35974;47.752;10.290;2023-03-14T10:22:24;1.55;;;0.20;;
50092;SDS011;35974;47.752;10.290;2023-03-14T10:25:05;0.65;;;0.17;;
50092;SDS011;35974;47.752;10.290;2023-03-14T10:27:50;0.63;;;0.30;;
50092;SDS011;35974;47.752;10.290;2023-03-14T10:30:30;0.32;;;0.10;;
50092;SDS011;35974;47.752;10.290;2023-03-14T10:33:08;1.58;;;0.17;;
50092;SDS011;35974;47.752;10.290;2023-03-14T10:35:36;0.47;;;0.20;;
50092;SDS011;35974;47.752;10.290;2023-03-14T10:38:03;0.30;;;0.10;;
50092;SDS011;35974;47.752;10.290;2023-03-14T10:40:31;0.93;;;0.05;;
50092;SDS011;35974;47.752;10.290;2023-03-14T10:42:59;0.40;;;0.17;;
50092;SDS011;35974;47.752;10.290;2023-03-14T10:45:36;0.70;;;0.20;;
50092;SDS011;35974;47.752;10.290;2023-03-14T10:50:47;2.83;;;0.30;;
50092;SDS011;35974;47.752;10.290;2023-03-14T10:53:22;1.00;;;0.28;;
50092;SDS011;35974;47.752;10.290;2023-03-14T10:55:52;5.15;;;0.65;;
50092;SDS011;35974;47.752;10.290;2023-03-14T10:58:20;1.20;;;0.40;;
50092;SDS011;35974;47.752;10.290;2023-03-14T11:00:50;0.93;;;0.20;;
50092;SDS011;35974;47.752;10.290;2023-03-14T11:03:23;1.88;;;0.15;;
50092;SDS011;35974;47.752;10.290;2023-03-14T11:06:04;0.22;;;0.22;;
50092;SDS011;35974;47.752;10.290;2023-03-14T11:08:42;0.60;;;0.30;;
50092;SDS011;35974;47.752;10.290;2023-03-14T11:11:25;0.40;;;0.13;;
50092;SDS011;35974;47.752;10.290;2023-03-14T11:19:39;2.13;;;0.40;;
50092;SDS011;35974;47.752;10.290;2023-03-14T11:22:17;0.30;;;0.15;;
50092;SDS011;35974;47.752;10.290;2023-03-14T11:27:36;2.38;;;1.30;;
50092;SDS011;35974;47.752;10.290;2023-03-14T11:30:26;1.13;;;0.20;;
50092;SDS011;35974;47.752;10.290;2023-03-14T11:36:06;2.40;;;0.93;;
50092;SDS011;35974;47.752;10.290;2023-03-14T11:38:40;0.70;;;0.40;;
50092;SDS011;35974;47.752;10.290;2023-03-14T11:41:15;0.50;;;0.30;;
50092;SDS011;35974;47.752;10.290;2023-03-14T11:43:50;0.40;;;0.30;;
50092;SDS011;35974;47.752;10.290;2023-03-14T11:46:22;0.13;;;0.10;;
50092;SDS011;35974;47.752;10.290;2023-03-14T11:51:41;0.40;;;0.30;;
50092;SDS011;35974;47.752;10.290;2023-03-14T11:54:47;0.50;;;0.40;;
50092;SDS011;35974;47.752;10.290;2023-03-14T11:57:16;1.00;;;0.30;;
50092;SDS011;35974;47.752;10.290;2023-03-14T12:02:35;0.80;;;0.30;;
50092;SDS011;35974;47.752;10.290;2023-03-14T12:10:52;0.25;;;0.15;;
50092;SDS011;35974;47.752;10.290;2023-03-14T12:13:22;0.88;;;0.30;;
50092;SDS011;35974;47.752;10.290;2023-03-14T12:15:58;1.02;;;0.30;;
50092;SDS011;35974;47.752;10.290;2023-03-14T12:18:38;0.63;;;0.10;;
50092;SDS011;35974;47.752;10.290;2023-03-14T12:21:11;0.28;;;0.10;;
50092;SDS011;35974;47.752;10.290;2023-03-14T12:28:42;0.38;;;0.30;;
50092;SDS011;35974;47.752;10.290;2023-03-14T12:39:39;0.60;;;0.40;;
50092;SDS011;35974;47.752;10.290;2023-03-14T12:48:09;0.47;;;0.20;;
50092;SDS011;35974;47.752;10.290;2023-03-14T12:50:43;0.15;;;0.10;;
50092;SDS011;35974;47.752;10.290;2023-03-14T12:56:16;0.43;;;0.17;;
50092;SDS011;35974;47.752;10.290;2023-03-14T13:01:37;1.35;;;0.20;;
50092;SDS011;35974;47.752;10.290;2023-03-14T13:04:25;0.10;;;0.10;;
50092;SDS011;35974;47.752;10.290;2023-03-14T13:07:04;0.35;;;0.22;;
50092;SDS011;35974;47.752;10.290;2023-03-14T13:12:03;0.73;;;0.30;;
50092;SDS011;35974;47.752;10.290;2023-03-14T13:14:41;0.30;;;0.15;;
50092;SDS011;35974;47.752;10.290;2023-03-14T13:17:12;0.20;;;0.10;;
50092;SDS011;35974;47.752;10.290;2023-03-14T13:20:01;0.85;;;0.00;;
50092;SDS011;35974;47.752;10.290;2023-03-14T13:22:35;2.08;;;0.10;;
50092;SDS011;35974;47.752;10.290;2023-03-14T13:25:05;1.27;;;0.10;;
50092;SDS011;35974;47.752;10.290;2023-03-14T13:27:35;1.35;;;0.35;;
50092;SDS011;35974;47.752;10.290;2023-03-14T13:30:22;0.38;;;0.20;;
50092;SDS011;35974;47.752;10.290;2023-03-14T13:32:51;0.30;;;0.28;;
50092;SDS011;35974;47.752;10.290;2023-03-14T13:35:23;0.10;;;0.10;;
50092;SDS011;35974;47.752;10.290;2023-03-14T13:37:56;0.30;;;0.10;;
50092;SDS011;35974;47.752;10.290;2023-03-14T13:40:36;0.10;;;0.10;;
50092;SDS011;35974;47.752;10.290;2023-03-14T13:43:05;0.40;;;0.20;;
50092;SDS011;35974;47.752;10.290;2023-03-14T13:48:35;0.55;;;0.20;;
50092;SDS011;35974;47.752;10.290;2023-03-14T13:51:09;0.15;;;0.10;;
50092;SDS011;35974;47.752;10.290;2023-03-14T13:53:44;0.10;;;0.10;;
50092;SDS011;35974;47.752;10.290;2023-03-14T13:59:25;0.98;;;0.20;;
50092;SDS011;35974;47.752;10.290;2023-03-14T14:01:54;1.75;;;0.50;;
50092;SDS011;35974;47.752;10.290;2023-03-14T14:04:22;0.38;;;0.30;;
50092;SDS011;35974;47.752;10.290;2023-03-14T14:06:58;0.52;;;0.40;;
50092;SDS011;35974;47.752;10.290;2023-03-14T14:09:30;8.73;;;3.97;;
50092;SDS011;35974;47.752;10.290;2023-03-14T14:12:29;0.65;;;0.40;;
50092;SDS011;35974;47.752;10.290;2023-03-14T14:18:17;1.58;;;0.65;;
50092;SDS011;35974;47.752;10.290;2023-03-14T14:20:48;1.60;;;0.47;;
50092;SDS011;35974;47.752;10.290;2023-03-14T14:23:20;3.10;;;0.60;;
50092;SDS011;35974;47.752;10.290;2023-03-14T14:25:55;0.40;;;0.40;;
50092;SDS011;35974;47.752;10.290;2023-03-14T14:28:28;2.17;;;1.02;;
50092;SDS011;35974;47.752;10.290;2023-03-14T14:34:02;0.88;;;0.60;;
50092;SDS011;35974;47.752;10.290;2023-03-14T14:36:39;1.98;;;0.50;;
50092;SDS011;35974;47.752;10.290;2023-03-14T14:39:25;0.80;;;0.60;;
50092;SDS011;35974;47.752;10.290;2023-03-14T14:44:58;0.38;;;0.20;;
50092;SDS011;35974;47.752;10.290;2023-03-14T14:47:26;2.05;;;0.40;;
50092;SDS011;35974;47.752;10.290;2023-03-14T14:49:55;0.60;;;0.30;;
50092;SDS011;35974;47.752;10.290;2023-03-14T14:52:42;0.57;;;0.30;;
50092;SDS011;35974;47.752;10.290;2023-03-14T14:55:22;0.50;;;0.30;;
50092;SDS011;35974;47.752;10.290;2023-03-14T15:03:54;0.90;;;0.70;;
50092;SDS011;35974;47.752;10.290;2023-03-14T15:06:28;1.77;;;0.75;;
50092;SDS011;35974;47.752;10.290;2023-03-14T15:11:27;1.30;;;0.70;;
50092;SDS011;35974;47.752;10.290;2023-03-14T15:13:56;1.20;;;0.77;;
50092;SDS011;35974;47.752;10.290;2023-03-14T15:16:27;1.08;;;0.70;;
50092;SDS011;35974;47.752;10.290;2023-03-14T15:18:57;1.02;;;0.73;;
50092;SDS011;35974;47.752;10.290;2023-03-14T15:21:25;0.98;;;0.77;;
50092;SDS011;35974;47.752;10.290;2023-03-14T15:23:52;4.13;;;1.20;;
50092;SDS011;35974;47.752;10.290;2023-03-14T15:26:20;6.55;;;1.30;;
50092;SDS011;35974;47.752;10.290;2023-03-14T15:28:50;4.05;;;1.05;;
50092;SDS011;35974;47.752;10.290;2023-03-14T15:31:20;1.50;;;0.90;;
50092;SDS011;35974;47.752;10.290;2023-03-14T15:33:49;3.80;;;1.10;;
50092;SDS011;35974;47.752;10.290;2023-03-14T15:36:34;2.05;;;1.20;;
50092;SDS011;35974;47.752;10.290;2023-03-14T15:39:03;1.83;;;0.90;;
50092;SDS011;35974;47.752;10.290;2023-03-14T15:47:08;2.70;;;0.82;;
50092;SDS011;35974;47.752;10.290;2023-03-14T15:49:36;1.92;;;0.98;;
50092;SDS011;35974;47.752;10.290;2023-03-14T15:52:03;4.72;;;1.45;;
50092;SDS011;35974;47.752;10.290;2023-03-14T15:54:45;2.05;;;0.85;;
50092;SDS011;35974;47.752;10.290;2023-03-14T15:57:12;1.95;;;0.80;;
50092;SDS011;35974;47.752;10.290;2023-03-14T15:59:40;2.03;;;1.10;;
50092;SDS011;35974;47.752;10.290;2023-03-14T16:02:12;3.45;;;1.25;;
50092;SDS011;35974;47.752;10.290;2023-03-14T16:04:38;3.60;;;1.02;;
50092;SDS011;35974;47.752;10.290;2023-03-14T16:07:07;4.20;;;1.20;;
50092;SDS011;35974;47.752;10.290;2023-03-14T16:09:33;3.53;;;1.10;;
50092;SDS011;35974;47.752;10.290;2023-03-14T16:12:00;4.13;;;1.27;;
50092;SDS011;35974;47.752;10.290;2023-03-14T16:17:25;5.63;;;1.00;;
50092;SDS011;35974;47.752;10.290;2023-03-14T16:20:09;2.03;;;1.10;;
50092;SDS011;35974;47.752;10.290;2023-03-14T16:25:28;1.92;;;1.15;;
50092;SDS011;35974;47.752;10.290;2023-03-14T16:28:00;4.18;;;1.10;;
50092;SDS011;35974;47.752;10.290;2023-03-14T16:30:38;2.00;;;1.05;;
50092;SDS011;35974;47.752;10.290;2023-03-14T16:33:07;3.60;;;0.95;;
50092;SDS011;35974;47.752;10.290;2023-03-14T16:35:38;7.38;;;1.17;;
50092;SDS011;35974;47.752;10.290;2023-03-14T16:38:15;3.90;;;0.85;;
50092;SDS011;35974;47.752;10.290;2023-03-14T16:40:41;3.97;;;1.00;;
50092;SDS011;35974;47.752;10.290;2023-03-14T16:43:08;4.93;;;0.85;;
50092;SDS011;35974;47.752;10.290;2023-03-14T16:45:41;2.13;;;0.80;;
50092;SDS011;35974;47.752;10.290;2023-03-14T16:48:16;5.95;;;1.10;;
50092;SDS011;35974;47.752;10.290;2023-03-14T16:50:49;5.15;;;1.00;;
50092;SDS011;35974;47.752;10.290;2023-03-14T16:53:16;4.40;;;1.00;;
50092;SDS011;35974;47.752;10.290;2023-03-14T16:55:43;1.45;;;0.60;;